Time;durP1;ratioP1;P1;durP2;ratioP2;P2;SDS_P1;SDS_P2;PMS_P1;PMS_P2;Temp;Humidity;BMP_temperature;BMP_pressure;BME280_temperature;BME280_humidity;BME280_pressure;Samples;Min_cycle;Max_cycle;Signal;HPM_P1;HPM_P2
2024/01/01 00:01:14;;;;;;;6.75;1.20;;;;;;;5.73;100.00;98547.53;5032341;28;20034;-96
2024/01/01 00:03:43;;;;;;;8.85;1.42;;;;;;;5.73;100.00;98568.50;5023280;28;20034;-94
2024/01/01 00:06:09;;;;;;;14.65;2.45;;;;;;;5.73;100.00;98563.25;4992741;28;20034;-92
2024/01/01 00:08:35;;;;;;;10.65;2.30;;;;;;;5.72;100.00;98569.47;4996919;28;20076;-95
2024/01/01 00:11:01;;;;;;;10.73;2.20;;;;;;;5.68;100.00;98570.78;5011283;28;20046;-96
2024/01/01 00:13:27;;;;;;;9.02;1.40;;;;;;;5.68;100.00;98579.47;5001763;28;20041;-96
2024/01/01 00:15:52;;;;;;;11.60;1.67;;;;;;;5.67;100.00;98572.56;5032404;28;20684;-94
2024/01/01 00:18:18;;;;;;;10.65;1.15;;;;;;;5.63;100.00;98573.03;5000533;28;20083;-94
2024/01/01 00:20:45;;;;;;;5.75;0.85;;;;;;;5.67;100.00;98580.44;5023260;28;20034;-89
2024/01/01 00:23:11;;;;;;;8.68;1.20;;;;;;;5.63;100.00;98573.88;4994469;28;20378;-94
2024/01/01 00:25:36;;;;;;;11.55;1.20;;;;;;;5.59;100.00;98580.41;4993659;28;20034;-94
2024/01/01 00:28:06;;;;;;;6.05;0.80;;;;;;;5.61;100.00;98588.09;5012229;28;20038;-95
2024/01/01 00:30:32;;;;;;;7.40;1.30;;;;;;;5.57;100.00;98583.19;5008208;28;20093;-95
2024/01/01 00:32:57;;;;;;;12.20;1.48;;;;;;;5.57;100.00;98577.13;4985676;28;20087;-95
2024/01/01 00:35:23;;;;;;;6.07;1.10;;;;;;;5.55;100.00;98582.53;4990338;28;20033;-95
2024/01/01 00:37:49;;;;;;;8.02;2.00;;;;;;;5.52;100.00;98585.47;4995440;28;20026;-96
2024/01/01 00:40:15;;;;;;;5.95;1.00;;;;;;;5.53;100.00;98587.09;4991080;28;20026;-94
2024/01/01 00:42:43;;;;;;;9.05;1.30;;;;;;;5.48;100.00;98583.31;4979374;28;20041;-96
2024/01/01 00:45:09;;;;;;;16.50;1.88;;;;;;;5.52;100.00;98600.38;4991847;28;20041;-95
2024/01/01 00:47:38;;;;;;;10.60;1.27;;;;;;;5.49;100.00;98601.50;4996633;28;20046;-95
2024/01/01 00:50:07;;;;;;;12.13;1.40;;;;;;;5.37;100.00;98593.09;4988502;28;20029;-88
2024/01/01 00:52:33;;;;;;;4.03;1.00;;;;;;;5.39;100.00;98608.66;4990776;28;20034;-94
2024/01/01 00:55:00;;;;;;;12.20;1.40;;;;;;;5.34;100.00;98612.56;4976167;28;20045;-95
2024/01/01 00:57:26;;;;;;;8.05;1.40;;;;;;;5.34;100.00;98623.06;4991631;28;20037;-95
2024/01/01 00:59:52;;;;;;;10.82;1.20;;;;;;;5.33;100.00;98613.56;5013133;28;20022;-94
2024/01/01 01:02:19;;;;;;;15.15;1.70;;;;;;;5.27;100.00;98616.78;4996303;28;20057;-92
2024/01/01 01:04:46;;;;;;;11.55;1.42;;;;;;;5.26;100.00;98616.94;5023480;28;20026;-93
2024/01/01 01:07:12;;;;;;;10.00;1.48;;;;;;;5.29;100.00;98617.44;4992952;28;20030;-94
2024/01/01 01:09:38;;;;;;;9.02;1.15;;;;;;;5.28;100.00;98625.47;4989954;28;20026;-95
2024/01/01 01:12:04;;;;;;;13.75;1.92;;;;;;;5.25;100.00;98621.38;5012733;28;20042;-94
2024/01/01 01:14:30;;;;;;;13.60;2.45;;;;;;;5.23;100.00;98633.78;4976503;28;20042;-94
2024/01/01 01:16:57;;;;;;;16.55;3.60;;;;;;;5.17;100.00;98632.63;5010720;28;20046;-95
2024/01/01 01:19:23;;;;;;;12.32;1.33;;;;;;;5.18;100.00;98649.13;5009670;28;20026;-95
2024/01/01 01:21:51;;;;;;;16.95;2.15;;;;;;;5.16;100.00;98654.53;4993537;28;20370;-94
2024/01/01 01:24:18;;;;;;;11.85;1.83;;;;;;;5.16;100.00;98651.91;5011433;28;20030;-95
2024/01/01 01:26:44;;;;;;;14.88;1.73;;;;;;;5.10;100.00;98649.91;4990014;28;20030;-94
2024/01/01 01:29:14;;;;;;;13.48;1.85;;;;;;;5.10;100.00;98652.53;5012639;28;20045;-95
2024/01/01 01:31:46;;;;;;;13.10;1.90;;;;;;;5.07;100.00;98656.28;4995610;28;20037;-96
2024/01/01 01:34:18;;;;;;;17.92;2.00;;;;;;;5.12;100.00;98663.69;4995350;28;20027;-96
2024/01/01 01:36:44;;;;;;;13.48;2.05;;;;;;;5.08;100.00;98662.34;4993961;28;20084;-86
2024/01/01 01:39:13;;;;;;;16.20;2.38;;;;;;;5.08;100.00;98646.63;4996338;28;20029;-94
2024/01/01 01:41:41;;;;;;;14.95;1.80;;;;;;;4.99;100.00;98640.50;4996906;28;20050;-94
2024/01/01 01:44:07;;;;;;;16.13;2.33;;;;;;;5.02;100.00;98655.91;4998945;28;20136;-95
2024/01/01 01:46:34;;;;;;;11.85;2.85;;;;;;;5.00;100.00;98649.19;4994893;28;20030;-94
2024/01/01 01:49:01;;;;;;;11.75;2.13;;;;;;;5.03;100.00;98661.97;4974819;28;20351;-94
2024/01/01 01:51:28;;;;;;;14.20;1.67;;;;;;;5.00;100.00;98657.84;4995533;28;20029;-96
2024/01/01 01:53:55;;;;;;;10.77;1.48;;;;;;;5.00;100.00;98667.53;4990501;28;20143;-95
2024/01/01 01:56:21;;;;;;;11.30;2.20;;;;;;;4.92;100.00;98658.63;4973736;28;20115;-95
2024/01/01 01:58:48;;;;;;;14.10;1.95;;;;;;;4.86;100.00;98651.38;4980067;28;20021;-95
2024/01/01 02:01:14;;;;;;;10.93;2.08;;;;;;;4.85;100.00;98673.28;5009698;28;20073;-94
2024/01/01 02:03:39;;;;;;;14.70;2.00;;;;;;;4.77;100.00;98674.06;5010840;28;20056;-94
2024/01/01 02:06:05;;;;;;;16.73;2.28;;;;;;;4.79;100.00;98721.03;4977599;28;20053;-94
2024/01/01 02:08:32;;;;;;;20.85;2.90;;;;;;;4.83;100.00;98693.56;4995506;28;20034;-94
2024/01/01 02:10:58;;;;;;;22.25;2.42;;;;;;;4.86;100.00;98698.50;4980635;28;20038;-94
2024/01/01 02:13:28;;;;;;;11.18;1.52;;;;;;;4.85;100.00;98696.84;5025952;28;20060;-94
2024/01/01 02:15:55;;;;;;;16.92;2.67;;;;;;;4.90;100.00;98719.97;4989286;28;20048;-95
2024/01/01 02:18:25;;;;;;;15.88;1.88;;;;;;;4.94;100.00;98737.00;5005352;28;20565;-93
2024/01/01 02:20:51;;;;;;;11.18;1.77;;;;;;;5.00;100.00;98731.16;5003402;28;20139;-93
2024/01/01 02:23:18;;;;;;;12.88;1.92;;;;;;;5.05;100.00;98712.38;5008143;28;20033;-96
2024/01/01 02:25:44;;;;;;;11.43;0.90;;;;;;;5.07;100.00;98669.38;5016439;28;20040;-94
2024/01/01 02:28:11;;;;;;;11.32;1.42;;;;;;;5.11;100.00;98682.16;4992096;28;20475;-95
2024/01/01 02:30:37;;;;;;;9.18;1.42;;;;;;;5.18;100.00;98698.91;4995945;28;20033;-96
2024/01/01 02:33:07;;;;;;;8.77;1.90;;;;;;;5.30;100.00;98713.38;5011811;28;20040;-94
2024/01/01 02:35:34;;;;;;;5.40;0.70;;;;;;;5.31;100.00;98711.59;4995759;28;20037;-94
2024/01/01 02:38:01;;;;;;;12.57;1.80;;;;;;;5.31;100.00;98716.84;4994455;28;20121;-94
2024/01/01 02:40:27;;;;;;;12.05;1.50;;;;;;;5.23;100.00;98720.22;4998018;28;20041;-94
2024/01/01 02:42:54;;;;;;;16.15;1.83;;;;;;;5.21;100.00;98714.31;5005064;28;20026;-96
2024/01/01 02:45:24;;;;;;;12.45;1.48;;;;;;;5.13;100.00;98714.28;4998077;28;20037;-96
2024/01/01 02:47:51;;;;;;;15.68;3.35;;;;;;;5.07;100.00;98729.59;4978283;28;20034;-96
2024/01/01 02:50:20;;;;;;;10.15;1.95;;;;;;;4.99;100.00;98721.69;4989904;28;20093;-96
2024/01/01 02:52:46;;;;;;;15.45;1.88;;;;;;;4.92;100.00;98725.88;4995149;28;20080;-96
2024/01/01 02:55:12;;;;;;;14.00;1.85;;;;;;;4.90;100.00;98730.44;4996950;28;20096;-96
2024/01/01 02:57:38;;;;;;;14.63;2.03;;;;;;;4.79;100.00;98734.94;4995985;28;20371;-93
2024/01/01 03:00:08;;;;;;;16.00;2.42;;;;;;;4.71;100.00;98724.38;5009036;28;20128;-96
2024/01/01 03:02:34;;;;;;;11.02;2.15;;;;;;;4.67;100.00;98736.09;4991274;28;20037;-95
2024/01/01 03:05:00;;;;;;;16.52;2.08;;;;;;;4.61;100.00;98741.94;4993954;28;20025;-94
2024/01/01 03:07:26;;;;;;;13.98;1.95;;;;;;;4.57;100.00;98739.63;5008550;28;20041;-95
2024/01/01 03:09:52;;;;;;;19.17;2.58;;;;;;;4.52;100.00;98741.88;4991725;28;20033;-95
2024/01/01 03:12:20;;;;;;;15.32;2.05;;;;;;;4.46;100.00;98737.19;4992634;28;20101;-95
2024/01/01 03:14:46;;;;;;;9.25;1.63;;;;;;;4.45;100.00;98753.88;5002544;28;20030;-95
2024/01/01 03:17:12;;;;;;;17.90;3.05;;;;;;;4.41;100.00;98745.50;5004025;28;20043;-94
2024/01/01 03:19:37;;;;;;;22.77;2.90;;;;;;;4.36;100.00;98750.34;4993485;28;20049;-94
2024/01/01 03:22:03;;;;;;;17.63;1.88;;;;;;;4.24;100.00;98757.56;5023605;28;20034;-94
2024/01/01 03:24:29;;;;;;;16.95;2.63;;;;;;;4.24;100.00;98757.56;4986891;28;20091;-94
2024/01/01 03:26:55;;;;;;;13.82;2.15;;;;;;;4.19;100.00;98758.00;5002627;28;20034;-93
2024/01/01 03:29:21;;;;;;;14.55;2.22;;;;;;;4.16;100.00;98754.84;4995444;28;20026;-94
2024/01/01 03:31:46;;;;;;;12.32;1.88;;;;;;;4.12;100.00;98750.88;4995625;28;20026;-94
2024/01/01 03:34:12;;;;;;;20.45;2.55;;;;;;;4.03;100.00;98748.16;5028532;28;20087;-95
2024/01/01 03:36:38;;;;;;;15.68;2.50;;;;;;;4.03;100.00;98747.34;4979701;28;20034;-95
2024/01/01 03:39:05;;;;;;;13.15;1.77;;;;;;;4.01;100.00;98759.72;5013108;28;20662;-95
2024/01/01 03:41:30;;;;;;;15.55;2.50;;;;;;;3.96;100.00;98749.72;4989248;28;20053;-93
2024/01/01 03:43:56;;;;;;;12.35;1.48;;;;;;;3.96;100.00;98765.41;5013807;28;20092;-94
2024/01/01 03:46:22;;;;;;;12.80;2.40;;;;;;;3.97;100.00;98767.03;5010811;28;20034;-94
2024/01/01 03:48:48;;;;;;;14.02;1.70;;;;;;;3.89;100.00;98765.13;4995519;28;20030;-95
2024/01/01 03:51:14;;;;;;;12.30;1.42;;;;;;;3.84;100.00;98762.94;5014148;28;20109;-94
2024/01/01 03:53:41;;;;;;;13.27;1.48;;;;;;;3.88;100.00;98773.13;4983717;28;20140;-94
2024/01/01 03:56:07;;;;;;;11.68;1.70;;;;;;;3.82;100.00;98777.94;4992750;28;20022;-94
2024/01/01 03:58:33;;;;;;;6.45;1.33;;;;;;;3.72;100.00;98770.16;5012809;28;20032;-94
2024/01/01 04:01:00;;;;;;;7.57;1.27;;;;;;;3.73;100.00;98770.94;4979092;28;20120;-94
2024/01/01 04:03:26;;;;;;;10.15;1.38;;;;;;;3.71;100.00;98776.31;5008158;28;20125;-94
2024/01/01 04:05:51;;;;;;;10.80;1.85;;;;;;;3.77;100.00;98782.78;5007861;28;20613;-93
2024/01/01 04:08:17;;;;;;;8.98;0.90;;;;;;;3.79;100.00;98793.09;4996880;28;20088;-94
2024/01/01 04:10:43;;;;;;;7.28;0.98;;;;;;;3.83;100.00;98802.31;5012541;28;20085;-93
2024/01/01 04:13:09;;;;;;;10.10;1.45;;;;;;;3.89;100.00;98801.72;4980703;28;20033;-94
2024/01/01 04:15:35;;;;;;;10.70;2.15;;;;;;;3.95;100.00;98801.16;4983895;28;20057;-94
2024/01/01 04:18:01;;;;;;;9.35;2.08;;;;;;;4.04;100.00;98798.66;4997553;28;20014;-94
2024/01/01 04:20:27;;;;;;;11.38;2.22;;;;;;;4.03;100.00;98786.56;5013854;28;20037;-94
2024/01/01 04:22:53;;;;;;;9.02;1.30;;;;;;;4.08;100.00;98795.63;4996687;28;20034;-94
2024/01/01 04:25:21;;;;;;;6.53;0.77;;;;;;;4.17;100.00;98791.31;5007172;28;20034;-94
2024/01/01 04:27:47;;;;;;;13.55;0.98;;;;;;;4.25;100.00;98793.22;5010096;28;20026;-94
2024/01/01 04:30:16;;;;;;;6.88;1.10;;;;;;;4.24;100.00;98781.09;4994038;28;20148;-93
2024/01/01 04:32:42;;;;;;;10.13;1.00;;;;;;;4.30;100.00;98779.72;4994753;28;20116;-94
2024/01/01 04:35:08;;;;;;;6.25;1.05;;;;;;;4.28;100.00;98774.63;5011957;28;20038;-93
2024/01/01 04:37:34;;;;;;;11.30;0.85;;;;;;;4.34;100.00;98792.34;4996269;28;20183;-94
2024/01/01 04:39:59;;;;;;;5.75;0.93;;;;;;;4.33;100.00;98795.91;4999642;28;20037;-94
2024/01/01 04:42:26;;;;;;;7.93;0.77;;;;;;;4.37;100.00;98798.25;5010615;28;20056;-93
2024/01/01 04:44:52;;;;;;;9.23;0.73;;;;;;;4.40;100.00;98798.78;4979694;28;20029;-93
2024/01/01 04:47:18;;;;;;;5.68;0.98;;;;;;;4.41;100.00;98805.66;4996568;28;20470;-94
2024/01/01 04:49:43;;;;;;;9.52;1.25;;;;;;;4.40;100.00;98803.19;4979680;28;20036;-94
2024/01/01 04:52:09;;;;;;;8.00;1.15;;;;;;;4.34;100.00;98805.44;5009149;28;20038;-94
2024/01/01 04:54:35;;;;;;;19.10;2.55;;;;;;;4.26;100.00;98792.25;5025861;28;20373;-94
2024/01/01 04:57:01;;;;;;;9.35;1.52;;;;;;;4.28;100.00;98799.94;4993563;28;20052;-94
2024/01/01 04:59:27;;;;;;;11.15;1.63;;;;;;;4.20;100.00;98808.53;4993445;28;20034;-94
2024/01/01 05:01:52;;;;;;;7.65;1.00;;;;;;;4.17;100.00;98809.63;5011241;28;20375;-94
2024/01/01 05:04:20;;;;;;;3.97;0.95;;;;;;;4.18;100.00;98810.44;4996314;28;20370;-94
2024/01/01 05:06:46;;;;;;;9.18;1.27;;;;;;;4.13;100.00;98800.41;4977828;28;20031;-94
2024/01/01 05:09:12;;;;;;;20.05;3.08;;;;;;;4.13;100.00;98802.19;5012661;28;20418;-94
2024/01/01 05:11:41;;;;;;;11.30;2.40;;;;;;;4.13;100.00;98792.56;5022288;28;20120;-95
2024/01/01 05:14:08;;;;;;;9.75;1.73;;;;;;;4.06;100.00;98783.66;5009217;28;20037;-93
2024/01/01 05:16:34;;;;;;;6.50;1.08;;;;;;;3.98;100.00;98789.63;5009421;28;20100;-94
2024/01/01 05:19:01;;;;;;;8.57;1.85;;;;;;;3.91;100.00;98797.19;4980743;28;20037;-94
2024/01/01 05:21:27;;;;;;;6.07;1.70;;;;;;;3.87;100.00;98793.19;4976806;28;20041;-94
2024/01/01 05:23:53;;;;;;;11.63;1.20;;;;;;;3.83;100.00;98797.06;4983034;28;20037;-94
2024/01/01 05:26:18;;;;;;;8.27;1.10;;;;;;;3.75;100.00;98789.09;5003304;28;20029;-94
2024/01/01 05:28:44;;;;;;;9.93;2.03;;;;;;;3.68;100.00;98794.91;4980358;28;20037;-94
2024/01/01 05:31:10;;;;;;;17.13;3.45;;;;;;;3.63;100.00;98770.97;5010018;28;20030;-94
2024/01/01 05:33:36;;;;;;;11.32;1.27;;;;;;;3.71;100.00;98789.38;4993862;28;20021;-94
2024/01/01 05:36:02;;;;;;;13.93;1.23;;;;;;;3.72;100.00;98795.44;4995669;28;20465;-94
2024/01/01 05:38:28;;;;;;;12.27;1.88;;;;;;;3.74;100.00;98792.69;4996612;28;20056;-94
2024/01/01 05:40:54;;;;;;;15.30;1.77;;;;;;;3.76;100.00;98803.84;4996412;28;20040;-95
2024/01/01 05:43:23;;;;;;;8.07;1.48;;;;;;;3.72;100.00;98803.28;5013629;28;20021;-94
2024/01/01 05:45:49;;;;;;;15.35;1.90;;;;;;;3.71;100.00;98812.09;4996407;28;20045;-95
2024/01/01 05:48:15;;;;;;;12.43;1.23;;;;;;;3.64;100.00;98801.38;4995856;28;20034;-93
2024/01/01 05:50:40;;;;;;;7.85;1.33;;;;;;;3.73;100.00;98802.31;4977204;28;20478;-94
2024/01/01 05:53:07;;;;;;;10.93;1.55;;;;;;;3.74;100.00;98809.22;5012065;28;20030;-94
2024/01/01 05:55:33;;;;;;;13.50;1.70;;;;;;;3.72;100.00;98798.06;4977102;28;20030;-93
2024/01/01 05:57:59;;;;;;;15.75;1.52;;;;;;;3.74;100.00;98797.91;5024391;28;20377;-94
2024/01/01 06:00:26;;;;;;;10.68;1.50;;;;;;;3.80;100.00;98799.97;4993161;28;20066;-94
2024/01/01 06:02:51;;;;;;;11.10;1.77;;;;;;;3.78;100.00;98807.13;4996987;28;20653;-94
2024/01/01 06:05:18;;;;;;;7.50;1.17;;;;;;;3.79;100.00;98803.56;4995108;28;20037;-95
2024/01/01 06:07:44;;;;;;;11.68;1.75;;;;;;;3.80;100.00;98811.25;5010015;28;20056;-93
2024/01/01 06:10:10;;;;;;;10.25;1.42;;;;;;;3.82;100.00;98811.91;4978548;28;20037;-93
2024/01/01 06:12:35;;;;;;;9.77;1.42;;;;;;;3.79;100.00;98798.34;5010994;28;20034;-94
2024/01/01 06:15:03;;;;;;;11.63;2.30;;;;;;;3.82;100.00;98811.13;5022341;28;20038;-93
2024/01/01 06:17:29;;;;;;;11.68;1.67;;;;;;;3.82;100.00;98805.88;4965984;28;20121;-94
2024/01/01 06:19:56;;;;;;;13.05;1.42;;;;;;;3.79;100.00;98806.19;4973756;28;20054;-93
2024/01/01 06:22:22;;;;;;;16.58;2.78;;;;;;;3.82;100.00;98801.47;4956366;28;20034;-94
2024/01/01 06:24:48;;;;;;;9.65;1.88;;;;;;;3.80;100.00;98795.56;4979184;28;20116;-94
2024/01/01 06:27:14;;;;;;;15.05;2.05;;;;;;;3.77;100.00;98790.63;4982925;28;20491;-95
2024/01/01 06:29:40;;;;;;;11.38;1.45;;;;;;;3.74;100.00;98785.69;4953047;28;20042;-94
2024/01/01 06:32:06;;;;;;;10.32;1.30;;;;;;;3.70;100.00;98784.31;4967711;28;20120;-94
2024/01/01 06:34:32;;;;;;;7.53;1.17;;;;;;;3.69;100.00;98780.06;4973593;28;20023;-93
2024/01/01 06:36:58;;;;;;;8.05;1.27;;;;;;;3.65;100.00;98781.28;4953659;28;20085;-93
2024/01/01 06:39:23;;;;;;;9.23;1.30;;;;;;;3.63;100.00;98775.41;4971846;28;20035;-94
2024/01/01 06:41:49;;;;;;;12.73;2.90;;;;;;;3.57;100.00;98776.75;4954474;28;20479;-93
2024/01/01 06:44:15;;;;;;;11.30;2.13;;;;;;;3.55;100.00;98779.50;4950272;28;20042;-93
2024/01/01 06:46:40;;;;;;;9.95;1.30;;;;;;;3.55;100.00;98781.31;4965145;28;20046;-94
2024/01/01 06:49:06;;;;;;;7.45;1.20;;;;;;;3.51;100.00;98783.38;4985085;28;20038;-93
2024/01/01 06:51:33;;;;;;;14.10;1.67;;;;;;;3.49;100.00;98781.88;4955901;28;20027;-93
2024/01/01 06:53:58;;;;;;;7.15;1.27;;;;;;;3.43;100.00;98775.41;5000654;28;20042;-90
2024/01/01 06:56:24;;;;;;;10.30;1.63;;;;;;;3.42;100.00;98782.44;4953099;28;20042;-92
2024/01/01 06:58:50;;;;;;;12.45;1.13;;;;;;;3.43;100.00;98784.09;4987403;28;20026;-94
2024/01/01 07:01:16;;;;;;;8.45;0.82;;;;;;;3.44;100.00;98777.09;4970431;28;20050;-93
2024/01/01 07:03:41;;;;;;;12.18;1.08;;;;;;;3.45;100.00;98776.09;4967696;28;20126;-93
2024/01/01 07:06:07;;;;;;;11.02;1.10;;;;;;;3.44;100.00;98780.50;4985186;28;20806;-93
2024/01/01 07:08:33;;;;;;;9.02;1.08;;;;;;;3.46;100.00;98772.53;4951420;28;20125;-93
2024/01/01 07:10:59;;;;;;;11.60;1.13;;;;;;;3.52;100.00;98789.44;4955355;28;20027;-93
2024/01/01 07:13:24;;;;;;;11.30;1.40;;;;;;;3.47;100.00;98788.06;4985108;28;20604;-92
2024/01/01 07:15:50;;;;;;;22.50;1.58;;;;;;;3.43;100.00;98781.47;4979712;28;20048;-93
2024/01/01 07:18:16;;;;;;;9.45;1.58;;;;;;;3.44;100.00;98783.09;4991106;28;20061;-94
2024/01/01 07:20:44;;;;;;;13.82;1.55;;;;;;;3.50;100.00;98786.13;5009197;28;20032;-94
2024/01/01 07:23:10;;;;;;;12.60;1.60;;;;;;;3.46;100.00;98783.81;4991379;28;20101;-94
2024/01/01 07:25:36;;;;;;;14.00;1.20;;;;;;;3.47;100.00;98780.22;5021916;28;20102;-94
2024/01/01 07:28:02;;;;;;;10.63;1.23;;;;;;;3.46;100.00;98775.97;5005916;28;20030;-93
2024/01/01 07:30:27;;;;;;;12.85;1.27;;;;;;;3.47;100.00;98782.84;4981121;28;20512;-93
2024/01/01 07:32:53;;;;;;;12.70;1.27;;;;;;;3.46;100.00;98769.91;4992730;28;20038;-92
2024/01/01 07:35:19;;;;;;;17.15;1.85;;;;;;;3.46;100.00;98772.53;5011377;28;20026;-93
2024/01/01 07:37:45;;;;;;;8.13;1.25;;;;;;;3.44;100.00;98766.63;5001296;28;20022;-93
2024/01/01 07:40:11;;;;;;;11.25;3.22;;;;;;;3.39;100.00;98774.88;4992109;28;20378;-93
2024/01/01 07:42:37;;;;;;;7.82;1.42;;;;;;;3.41;100.00;98769.53;5024489;28;20025;-92
2024/01/01 07:45:03;;;;;;;9.57;1.10;;;;;;;3.40;100.00;98763.47;4995300;28;20046;-92
2024/01/01 07:47:29;;;;;;;13.45;1.30;;;;;;;3.38;100.00;98752.31;4992730;28;20117;-92
2024/01/01 07:49:54;;;;;;;13.55;3.80;;;;;;;3.37;100.00;98757.69;4977933;28;20026;-93
2024/01/01 07:52:20;;;;;;;8.20;1.20;;;;;;;3.38;100.00;98754.13;4995046;28;20026;-93
2024/01/01 07:54:46;;;;;;;8.18;1.13;;;;;;;3.37;100.00;98747.25;4980727;28;20029;-93
2024/01/01 07:57:12;;;;;;;18.63;1.90;;;;;;;3.32;100.00;98760.72;5009798;28;20026;-93
2024/01/01 07:59:38;;;;;;;7.57;1.20;;;;;;;3.26;100.00;98763.88;5005494;28;20031;-93
2024/01/01 08:02:04;;;;;;;9.65;1.83;;;;;;;3.27;100.00;98766.38;4992445;28;20042;-92
2024/01/01 08:04:29;;;;;;;11.25;1.63;;;;;;;3.27;100.00;98771.59;5011360;28;20378;-93
2024/01/01 08:06:55;;;;;;;10.13;1.42;;;;;;;3.31;100.00;98772.94;5010481;28;20041;-93
2024/01/01 08:09:21;;;;;;;8.20;1.38;;;;;;;3.31;100.00;98767.72;5005702;28;20038;-94
2024/01/01 08:11:47;;;;;;;12.00;1.10;;;;;;;3.31;100.00;98769.53;4994543;28;20026;-93
2024/01/01 08:14:12;;;;;;;6.95;1.05;;;;;;;3.25;100.00;98778.72;5011653;28;20052;-93
2024/01/01 08:16:38;;;;;;;13.80;1.13;;;;;;;3.23;100.00;98778.06;4992504;28;20069;-93
2024/01/01 08:19:04;;;;;;;6.35;1.30;;;;;;;3.26;100.00;98764.72;5000106;28;20486;-93
2024/01/01 08:21:29;;;;;;;8.82;1.13;;;;;;;3.25;100.00;98762.25;5008973;28;20033;-93
2024/01/01 08:23:55;;;;;;;3.80;0.73;;;;;;;3.24;100.00;98771.88;5013586;28;20103;-93
2024/01/01 08:26:21;;;;;;;10.55;1.17;;;;;;;3.26;100.00;98775.16;5012419;28;20496;-93
2024/01/01 08:28:51;;;;;;;10.10;1.45;;;;;;;3.25;100.00;98765.66;5006859;28;20038;-93
2024/01/01 08:31:20;;;;;;;8.23;1.52;;;;;;;3.31;100.00;98772.94;5021889;28;20037;-93
2024/01/01 08:33:46;;;;;;;16.90;1.42;;;;;;;3.26;100.00;98774.34;5008332;28;20046;-92
2024/01/01 08:36:12;;;;;;;5.68;1.05;;;;;;;3.24;100.00;98774.47;4997235;28;20030;-93
2024/01/01 08:38:38;;;;;;;9.02;0.95;;;;;;;3.23;100.00;98772.84;5012199;28;20026;-93
2024/01/01 08:41:04;;;;;;;13.18;2.72;;;;;;;3.26;100.00;98767.34;4997822;28;20128;-92
2024/01/01 08:43:30;;;;;;;8.32;0.88;;;;;;;3.31;100.00;98769.53;5012197;28;20038;-93
2024/01/01 08:45:55;;;;;;;7.05;1.15;;;;;;;3.32;100.00;98764.16;5002372;28;20022;-93
2024/01/01 08:48:21;;;;;;;9.55;1.85;;;;;;;3.33;100.00;98760.59;5010424;28;20026;-93
2024/01/01 08:50:47;;;;;;;13.32;1.45;;;;;;;3.33;100.00;98768.41;4988815;28;20037;-92
2024/01/01 08:53:13;;;;;;;9.85;1.48;;;;;;;3.36;100.00;98762.09;4997027;28;20030;-93
2024/01/01 08:55:38;;;;;;;4.68;0.80;;;;;;;3.39;100.00;98761.84;5009896;28;20115;-93
2024/01/01 08:58:05;;;;;;;6.80;1.02;;;;;;;3.30;100.00;98752.19;5010952;28;20332;-92
2024/01/01 09:00:31;;;;;;;8.02;0.73;;;;;;;3.09;100.00;98751.41;5001004;28;20034;-93
2024/01/01 09:02:56;;;;;;;9.48;0.90;;;;;;;2.98;100.00;98746.31;5007581;28;20802;-93
2024/01/01 09:05:22;;;;;;;10.63;1.98;;;;;;;3.00;100.00;98752.22;4981960;28;20474;-93
2024/01/01 09:07:48;;;;;;;8.77;1.15;;;;;;;2.99;100.00;98750.59;5012970;28;20033;-93
2024/01/01 09:10:16;;;;;;;9.40;2.17;;;;;;;3.04;100.00;98747.56;5013304;28;20034;-93
2024/01/01 09:12:42;;;;;;;10.05;1.63;;;;;;;3.05;100.00;98743.97;5010165;28;20136;-93
2024/01/01 09:15:08;;;;;;;9.45;2.75;;;;;;;3.10;100.00;98753.06;4995475;28;20065;-94
2024/01/01 09:17:35;;;;;;;8.38;2.40;;;;;;;3.08;100.00;98754.97;4979404;28;20033;-81
2024/01/01 09:20:00;;;;;;;14.70;5.15;;;;;;;3.09;100.00;98745.38;4987706;28;20113;-93
2024/01/01 09:22:26;;;;;;;6.63;2.00;;;;;;;3.11;100.00;98743.41;4979125;28;20076;-93
2024/01/01 09:24:52;;;;;;;9.63;1.90;;;;;;;3.08;100.00;98731.47;5021525;28;20034;-94
2024/01/01 09:27:18;;;;;;;8.63;1.75;;;;;;;3.10;100.00;98733.94;4978747;28;20378;-94
2024/01/01 09:29:43;;;;;;;8.13;1.63;;;;;;;3.09;100.00;98732.31;5010909;28;20080;-93
2024/01/01 09:32:09;;;;;;;5.07;1.40;;;;;;;3.13;100.00;98725.00;4992517;28;20092;-94
2024/01/01 09:34:35;;;;;;;11.48;1.95;;;;;;;3.16;100.00;98716.91;4994579;28;20045;-94
2024/01/01 09:37:00;;;;;;;9.95;1.85;;;;;;;3.20;100.00;98713.06;4989530;28;20033;-94
2024/01/01 09:39:28;;;;;;;7.95;2.20;;;;;;;3.19;100.00;98701.78;5027680;28;20109;-94
2024/01/01 09:41:54;;;;;;;5.82;2.22;;;;;;;3.21;100.00;98709.47;5002089;28;20049;-94
2024/01/01 09:44:20;;;;;;;6.82;2.13;;;;;;;3.22;100.00;98704.13;5003325;28;20621;-93
2024/01/01 09:46:46;;;;;;;15.43;2.95;;;;;;;3.20;100.00;98697.41;5006856;28;20034;-94
2024/01/01 09:49:12;;;;;;;13.38;2.95;;;;;;;3.14;100.00;98698.75;4991820;28;20046;-92
2024/01/01 09:51:39;;;;;;;12.18;3.78;;;;;;;3.16;100.00;98691.63;5026315;28;20105;-92
2024/01/01 09:54:05;;;;;;;22.48;5.90;;;;;;;3.23;100.00;98691.91;4994689;28;20084;-93
2024/01/01 09:56:31;;;;;;;18.45;9.27;;;;;;;3.27;100.00;98688.03;5004667;28;20038;-93
2024/01/01 09:58:59;;;;;;;20.73;8.50;;;;;;;3.31;100.00;98676.31;4995596;28;20033;-93
2024/01/01 10:01:25;;;;;;;18.58;8.20;;;;;;;3.38;100.00;98673.16;4976755;28;20057;-96
2024/01/01 10:04:09;;;;;;;17.50;6.30;;;;;;;3.45;100.00;98669.00;5018419;28;20041;-96
2024/01/01 10:06:36;;;;;;;17.10;5.57;;;;;;;3.49;100.00;98674.78;4989151;28;20141;-93
2024/01/01 10:09:11;;;;;;;17.42;6.80;;;;;;;3.52;100.00;98656.22;4983872;28;20034;-94
2024/01/01 10:11:41;;;;;;;14.98;6.80;;;;;;;3.55;100.00;98666.38;5000680;28;20121;-92
2024/01/01 10:14:07;;;;;;;19.33;6.30;;;;;;;3.50;100.00;98658.97;5007985;28;20052;-94
2024/01/01 10:16:33;;;;;;;16.63;7.00;;;;;;;3.50;100.00;98650.31;5009044;28;20033;-96
2024/01/01 10:19:02;;;;;;;18.02;7.80;;;;;;;3.48;100.00;98650.44;4993880;28;20060;-96
2024/01/01 10:21:29;;;;;;;20.40;8.38;;;;;;;3.54;100.00;98641.19;5019118;28;20124;-94
2024/01/01 10:23:56;;;;;;;15.85;6.75;;;;;;;3.54;100.00;98636.81;5007974;28;20030;-91
2024/01/01 10:26:22;;;;;;;16.08;6.45;;;;;;;3.58;100.00;98630.31;5011610;28;20038;-96
2024/01/01 10:28:48;;;;;;;15.88;7.13;;;;;;;3.63;100.00;98626.47;4992541;28;20153;-96
2024/01/01 10:31:15;;;;;;;10.75;5.03;;;;;;;3.68;100.00;98621.63;4994306;28;20046;-96
2024/01/01 10:33:42;;;;;;;17.48;3.85;;;;;;;3.78;100.00;98625.00;5009153;28;20029;-96
2024/01/01 10:36:08;;;;;;;14.00;1.73;;;;;;;3.89;100.00;98617.94;4991610;28;20042;-96
2024/01/01 10:38:38;;;;;;;16.50;2.83;;;;;;;4.00;100.00;98609.09;4995350;28;20504;-96
2024/01/01 10:41:05;;;;;;;6.78;1.30;;;;;;;4.17;100.00;98613.47;4994536;28;20038;-96
2024/01/01 10:43:34;;;;;;;8.95;1.45;;;;;;;4.25;100.00;98609.31;4997531;28;20478;-96
2024/01/01 10:46:04;;;;;;;21.00;2.90;;;;;;;4.33;100.00;98609.41;5015714;28;20034;-96
2024/01/01 10:48:35;;;;;;;10.52;1.38;;;;;;;4.40;100.00;98607.00;5006696;28;20038;-94
2024/01/01 10:51:13;;;;;;;10.57;2.15;;;;;;;4.45;100.00;98594.28;4988733;28;20038;-94
2024/01/01 10:53:38;;;;;;;10.65;1.60;;;;;;;4.43;100.00;98586.59;5008185;28;20037;-96
2024/01/01 10:56:13;;;;;;;13.48;1.55;;;;;;;4.55;100.00;98575.91;4995548;28;20486;-96
2024/01/01 10:58:57;;;;;;;11.23;1.48;;;;;;;4.53;100.00;98570.81;5005184;28;20042;-94
2024/01/01 11:01:24;;;;;;;10.23;1.27;;;;;;;4.61;100.00;98567.44;5019681;28;21487;-96
2024/01/01 11:03:51;;;;;;;10.88;1.35;;;;;;;4.63;100.00;98557.66;5010830;28;20038;-96
2024/01/01 11:06:29;;;;;;;16.98;1.60;;;;;;;4.72;100.00;98558.50;4991743;28;20045;-96
2024/01/01 11:08:56;;;;;;;8.57;1.23;;;;;;;4.70;100.00;98542.13;5003920;28;20043;-95
2024/01/01 11:11:32;;;;;;;7.43;1.20;;;;;;;4.80;100.00;98531.56;5021731;28;20113;-94
2024/01/01 11:13:59;;;;;;;10.98;1.48;;;;;;;4.79;100.00;98538.63;5014016;28;20768;-94
2024/01/01 11:16:26;;;;;;;8.10;1.17;;;;;;;4.81;100.00;98523.56;4988774;28;20061;-93
2024/01/01 11:18:52;;;;;;;14.93;1.48;;;;;;;4.84;100.00;98523.25;4993424;28;20124;-94
2024/01/01 11:21:32;;;;;;;11.98;1.38;;;;;;;4.90;100.00;98513.13;5004095;28;20046;-93
2024/01/01 11:24:02;;;;;;;8.40;1.73;;;;;;;4.86;100.00;98496.13;4983400;28;20125;-96
2024/01/01 11:26:35;;;;;;;24.35;2.05;;;;;;;4.90;100.00;98490.41;5014021;28;20031;-96